sensor_id;sensor_type;location;lat;lon;timestamp;P1;durP1;ratioP1;P2;durP2;ratioP2
14247;SDS011;7208;49.826;6.004;2022-12-16T00:01:09;4.20;;;3.27;;
14247;SDS011;7208;49.826;6.004;2022-12-16T00:03:38;3.10;;;2.80;;
14247;SDS011;7208;49.826;6.004;2022-12-16T00:06:05;3.93;;;2.93;;
14247;SDS011;7208;49.826;6.004;2022-12-16T00:08:33;2.90;;;2.60;;
14247;SDS011;7208;49.826;6.004;2022-12-16T00:11:00;3.53;;;2.60;;
14247;SDS011;7208;49.826;6.004;2022-12-16T00:13:27;3.87;;;2.97;;
14247;SDS011;7208;49.826;6.004;2022-12-16T00:15:54;2.83;;;2.60;;
14247;SDS011;7208;49.826;6.004;2022-12-16T00:18:20;3.90;;;3.50;;
14247;SDS011;7208;49.826;6.004;2022-12-16T00:20:47;5.13;;;3.47;;
14247;SDS011;7208;49.826;6.004;2022-12-16T00:23:13;7.23;;;4.40;;
14247;SDS011;7208;49.826;6.004;2022-12-16T00:25:40;4.80;;;3.57;;
14247;SDS011;7208;49.826;6.004;2022-12-16T00:28:07;5.50;;;3.63;;
14247;SDS011;7208;49.826;6.004;2022-12-16T00:30:33;7.83;;;3.63;;
14247;SDS011;7208;49.826;6.004;2022-12-16T00:32:59;5.70;;;3.90;;
14247;SDS011;7208;49.826;6.004;2022-12-16T00:35:24;6.30;;;4.27;;
14247;SDS011;7208;49.826;6.004;2022-12-16T00:37:50;4.60;;;4.10;;
14247;SDS011;7208;49.826;6.004;2022-12-16T00:40:16;5.17;;;3.97;;
14247;SDS011;7208;49.826;6.004;2022-12-16T00:42:41;4.60;;;3.83;;
14247;SDS011;7208;49.826;6.004;2022-12-16T00:45:07;4.17;;;3.77;;
14247;SDS011;7208;49.826;6.004;2022-12-16T00:47:33;3.73;;;3.40;;
14247;SDS011;7208;49.826;6.004;2022-12-16T00:49:58;4.37;;;3.50;;
14247;SDS011;7208;49.826;6.004;2022-12-16T00:52:24;4.03;;;3.53;;
14247;SDS011;7208;49.826;6.004;2022-12-16T00:54:50;6.77;;;3.87;;
14247;SDS011;7208;49.826;6.004;2022-12-16T00:57:15;4.97;;;3.60;;
14247;SDS011;7208;49.826;6.004;2022-12-16T00:59:41;5.87;;;3.70;;
14247;SDS011;7208;49.826;6.004;2022-12-16T01:02:07;3.33;;;3.03;;
14247;SDS011;7208;49.826;6.004;2022-12-16T01:04:34;4.40;;;4.00;;
14247;SDS011;7208;49.826;6.004;2022-12-16T01:07:00;3.60;;;2.90;;
14247;SDS011;7208;49.826;6.004;2022-12-16T01:09:26;4.43;;;3.23;;
14247;SDS011;7208;49.826;6.004;2022-12-16T01:11:52;4.80;;;3.53;;
14247;SDS011;7208;49.826;6.004;2022-12-16T01:14:17;4.73;;;3.37;;
14247;SDS011;7208;49.826;6.004;2022-12-16T01:16:43;3.40;;;2.93;;
14247;SDS011;7208;49.826;6.004;2022-12-16T01:19:09;2.73;;;2.43;;
14247;SDS011;7208;49.826;6.004;2022-12-16T01:21:35;2.20;;;2.10;;
14247;SDS011;7208;49.826;6.004;2022-12-16T01:24:02;2.30;;;2.17;;
14247;SDS011;7208;49.826;6.004;2022-12-16T01:26:28;2.00;;;1.90;;
14247;SDS011;7208;49.826;6.004;2022-12-16T01:28:55;2.30;;;2.10;;
14247;SDS011;7208;49.826;6.004;2022-12-16T01:31:22;2.13;;;2.00;;
14247;SDS011;7208;49.826;6.004;2022-12-16T01:33:48;2.43;;;2.23;;
14247;SDS011;7208;49.826;6.004;2022-12-16T01:36:15;1.90;;;1.80;;
14247;SDS011;7208;49.826;6.004;2022-12-16T01:38:41;2.90;;;2.70;;
14247;SDS011;7208;49.826;6.004;2022-12-16T01:41:08;3.90;;;3.27;;
14247;SDS011;7208;49.826;6.004;2022-12-16T01:43:36;3.53;;;2.80;;
14247;SDS011;7208;49.826;6.004;2022-12-16T01:53:54;3.73;;;3.07;;
14247;SDS011;7208;49.826;6.004;2022-12-16T01:56:26;2.93;;;2.67;;
14247;SDS011;7208;49.826;6.004;2022-12-16T01:58:55;3.33;;;2.60;;
14247;SDS011;7208;49.826;6.004;2022-12-16T02:01:21;3.43;;;2.57;;
14247;SDS011;7208;49.826;6.004;2022-12-16T02:03:51;3.77;;;2.80;;
14247;SDS011;7208;49.826;6.004;2022-12-16T02:06:26;3.37;;;3.07;;
14247;SDS011;7208;49.826;6.004;2022-12-16T02:08:54;3.27;;;3.07;;
14247;SDS011;7208;49.826;6.004;2022-12-16T02:14:31;3.53;;;3.23;;
14247;SDS011;7208;49.826;6.004;2022-12-16T02:19:53;2.40;;;2.20;;
14247;SDS011;7208;49.826;6.004;2022-12-16T02:31:16;2.23;;;2.13;;
14247;SDS011;7208;49.826;6.004;2022-12-16T02:33:48;2.10;;;2.00;;
14247;SDS011;7208;49.826;6.004;2022-12-16T02:39:00;2.40;;;2.20;;
14247;SDS011;7208;49.826;6.004;2022-12-16T02:42:01;1.83;;;1.73;;
14247;SDS011;7208;49.826;6.004;2022-12-16T02:44:39;2.07;;;1.97;;
14247;SDS011;7208;49.826;6.004;2022-12-16T02:47:15;2.40;;;2.23;;
14247;SDS011;7208;49.826;6.004;2022-12-16T02:49:45;2.30;;;2.10;;
14247;SDS011;7208;49.826;6.004;2022-12-16T02:52:13;1.97;;;1.83;;
14247;SDS011;7208;49.826;6.004;2022-12-16T02:54:41;2.03;;;1.93;;
14247;SDS011;7208;49.826;6.004;2022-12-16T03:00:06;1.97;;;1.87;;
14247;SDS011;7208;49.826;6.004;2022-12-16T03:05:29;1.60;;;1.50;;
14247;SDS011;7208;49.826;6.004;2022-12-16T03:08:04;1.80;;;1.70;;
14247;SDS011;7208;49.826;6.004;2022-12-16T03:10:39;1.80;;;1.70;;
14247;SDS011;7208;49.826;6.004;2022-12-16T03:13:09;1.70;;;1.60;;
14247;SDS011;7208;49.826;6.004;2022-12-16T03:15:37;2.13;;;1.93;;
14247;SDS011;7208;49.826;6.004;2022-12-16T03:18:04;2.13;;;1.97;;
14247;SDS011;7208;49.826;6.004;2022-12-16T03:20:41;1.77;;;1.67;;
14247;SDS011;7208;49.826;6.004;2022-12-16T03:23:22;1.93;;;1.83;;
14247;SDS011;7208;49.826;6.004;2022-12-16T03:25:56;1.87;;;1.77;;
14247;SDS011;7208;49.826;6.004;2022-12-16T03:36:29;1.40;;;1.30;;
14247;SDS011;7208;49.826;6.004;2022-12-16T03:38:58;1.70;;;1.60;;
14247;SDS011;7208;49.826;6.004;2022-12-16T03:41:25;1.60;;;1.50;;
14247;SDS011;7208;49.826;6.004;2022-12-16T03:43:54;1.70;;;1.60;;
14247;SDS011;7208;49.826;6.004;2022-12-16T03:46:19;1.50;;;1.40;;
14247;SDS011;7208;49.826;6.004;2022-12-16T03:48:46;2.10;;;1.87;;
14247;SDS011;7208;49.826;6.004;2022-12-16T03:51:13;1.70;;;1.60;;
14247;SDS011;7208;49.826;6.004;2022-12-16T03:53:40;1.70;;;1.60;;
14247;SDS011;7208;49.826;6.004;2022-12-16T03:56:06;1.73;;;1.60;;
14247;SDS011;7208;49.826;6.004;2022-12-16T03:58:32;1.57;;;1.47;;
14247;SDS011;7208;49.826;6.004;2022-12-16T04:00:59;1.70;;;1.60;;
14247;SDS011;7208;49.826;6.004;2022-12-16T04:03:28;1.93;;;1.73;;
14247;SDS011;7208;49.826;6.004;2022-12-16T04:05:54;1.67;;;1.57;;
14247;SDS011;7208;49.826;6.004;2022-12-16T04:08:20;1.80;;;1.70;;
14247;SDS011;7208;49.826;6.004;2022-12-16T04:10:45;1.90;;;1.70;;
14247;SDS011;7208;49.826;6.004;2022-12-16T04:13:46;1.97;;;1.87;;
14247;SDS011;7208;49.826;6.004;2022-12-16T04:16:30;1.70;;;1.60;;
14247;SDS011;7208;49.826;6.004;2022-12-16T04:19:35;2.10;;;2.00;;
14247;SDS011;7208;49.826;6.004;2022-12-16T04:22:24;2.07;;;1.97;;
14247;SDS011;7208;49.826;6.004;2022-12-16T04:25:20;2.37;;;2.17;;
14247;SDS011;7208;49.826;6.004;2022-12-16T04:27:48;2.20;;;2.00;;
14247;SDS011;7208;49.826;6.004;2022-12-16T04:30:18;1.90;;;1.80;;
14247;SDS011;7208;49.826;6.004;2022-12-16T04:32:58;1.80;;;1.70;;
14247;SDS011;7208;49.826;6.004;2022-12-16T04:35:45;1.90;;;1.80;;
14247;SDS011;7208;49.826;6.004;2022-12-16T04:38:30;1.97;;;1.87;;
14247;SDS011;7208;49.826;6.004;2022-12-16T04:41:15;3.37;;;2.10;;
14247;SDS011;7208;49.826;6.004;2022-12-16T04:44:00;2.30;;;2.10;;
14247;SDS011;7208;49.826;6.004;2022-12-16T04:46:44;2.00;;;1.90;;
14247;SDS011;7208;49.826;6.004;2022-12-16T04:49:29;3.27;;;2.00;;
14247;SDS011;7208;49.826;6.004;2022-12-16T04:52:14;2.80;;;2.30;;
14247;SDS011;7208;49.826;6.004;2022-12-16T04:54:59;2.20;;;2.00;;
14247;SDS011;7208;49.826;6.004;2022-12-16T04:57:47;2.10;;;1.90;;
14247;SDS011;7208;49.826;6.004;2022-12-16T05:00:34;2.10;;;2.00;;
14247;SDS011;7208;49.826;6.004;2022-12-16T05:03:18;2.50;;;2.30;;
14247;SDS011;7208;49.826;6.004;2022-12-16T05:06:02;2.20;;;2.10;;
14247;SDS011;7208;49.826;6.004;2022-12-16T05:08:47;2.47;;;2.07;;
14247;SDS011;7208;49.826;6.004;2022-12-16T05:11:31;2.10;;;2.00;;
14247;SDS011;7208;49.826;6.004;2022-12-16T05:14:17;3.17;;;2.07;;
14247;SDS011;7208;49.826;6.004;2022-12-16T05:17:01;2.10;;;1.90;;
14247;SDS011;7208;49.826;6.004;2022-12-16T05:19:46;2.07;;;1.87;;
14247;SDS011;7208;49.826;6.004;2022-12-16T05:22:30;2.10;;;1.90;;
14247;SDS011;7208;49.826;6.004;2022-12-16T05:25:15;1.87;;;1.77;;
14247;SDS011;7208;49.826;6.004;2022-12-16T05:27:59;2.23;;;1.97;;
14247;SDS011;7208;49.826;6.004;2022-12-16T05:30:44;2.20;;;2.00;;
14247;SDS011;7208;49.826;6.004;2022-12-16T05:33:28;2.73;;;2.53;;
14247;SDS011;7208;49.826;6.004;2022-12-16T05:36:12;2.27;;;2.10;;
14247;SDS011;7208;49.826;6.004;2022-12-16T05:38:56;2.03;;;1.83;;
14247;SDS011;7208;49.826;6.004;2022-12-16T05:41:40;2.20;;;1.90;;
14247;SDS011;7208;49.826;6.004;2022-12-16T05:44:25;2.73;;;2.53;;
14247;SDS011;7208;49.826;6.004;2022-12-16T05:47:09;2.00;;;1.90;;
14247;SDS011;7208;49.826;6.004;2022-12-16T05:49:53;1.60;;;1.50;;
14247;SDS011;7208;49.826;6.004;2022-12-16T05:52:38;2.33;;;2.17;;
14247;SDS011;7208;49.826;6.004;2022-12-16T05:55:23;2.00;;;1.90;;
14247;SDS011;7208;49.826;6.004;2022-12-16T05:58:07;2.53;;;2.03;;
14247;SDS011;7208;49.826;6.004;2022-12-16T06:00:51;2.03;;;1.93;;
14247;SDS011;7208;49.826;6.004;2022-12-16T06:03:35;2.53;;;2.03;;
14247;SDS011;7208;49.826;6.004;2022-12-16T06:06:19;2.40;;;2.20;;
14247;SDS011;7208;49.826;6.004;2022-12-16T06:09:04;2.93;;;2.10;;
14247;SDS011;7208;49.826;6.004;2022-12-16T06:11:48;2.50;;;2.30;;
14247;SDS011;7208;49.826;6.004;2022-12-16T06:14:33;2.40;;;2.20;;
14247;SDS011;7208;49.826;6.004;2022-12-16T06:17:17;2.37;;;2.17;;
14247;SDS011;7208;49.826;6.004;2022-12-16T06:20:01;2.60;;;2.13;;
14247;SDS011;7208;49.826;6.004;2022-12-16T06:22:53;3.20;;;2.20;;
14247;SDS011;7208;49.826;6.004;2022-12-16T06:25:37;2.17;;;2.07;;
14247;SDS011;7208;49.826;6.004;2022-12-16T06:28:22;3.10;;;2.23;;
14247;SDS011;7208;49.826;6.004;2022-12-16T06:31:06;2.43;;;2.20;;
14247;SDS011;7208;49.826;6.004;2022-12-16T06:33:51;3.03;;;2.30;;
14247;SDS011;7208;49.826;6.004;2022-12-16T06:36:36;2.77;;;2.57;;
14247;SDS011;7208;49.826;6.004;2022-12-16T06:39:20;3.20;;;2.90;;
14247;SDS011;7208;49.826;6.004;2022-12-16T06:42:04;3.43;;;3.13;;
14247;SDS011;7208;49.826;6.004;2022-12-16T06:44:48;3.90;;;2.90;;
14247;SDS011;7208;49.826;6.004;2022-12-16T06:47:32;2.40;;;2.20;;
14247;SDS011;7208;49.826;6.004;2022-12-16T06:50:17;2.30;;;2.10;;
14247;SDS011;7208;49.826;6.004;2022-12-16T06:53:01;2.53;;;2.33;;
14247;SDS011;7208;49.826;6.004;2022-12-16T06:55:51;2.13;;;2.03;;
14247;SDS011;7208;49.826;6.004;2022-12-16T06:58:43;2.50;;;2.30;;
14247;SDS011;7208;49.826;6.004;2022-12-16T07:01:27;4.17;;;2.40;;
14247;SDS011;7208;49.826;6.004;2022-12-16T07:04:11;2.50;;;2.30;;
14247;SDS011;7208;49.826;6.004;2022-12-16T07:06:56;2.57;;;2.37;;
14247;SDS011;7208;49.826;6.004;2022-12-16T07:09:40;2.70;;;2.50;;
14247;SDS011;7208;49.826;6.004;2022-12-16T07:12:25;2.67;;;2.40;;
14247;SDS011;7208;49.826;6.004;2022-12-16T07:15:10;3.40;;;2.63;;
14247;SDS011;7208;49.826;6.004;2022-12-16T07:17:54;3.13;;;2.80;;
14247;SDS011;7208;49.826;6.004;2022-12-16T07:20:39;3.37;;;3.00;;
14247;SDS011;7208;49.826;6.004;2022-12-16T07:23:23;3.23;;;2.90;;
14247;SDS011;7208;49.826;6.004;2022-12-16T07:26:07;3.70;;;3.47;;
14247;SDS011;7208;49.826;6.004;2022-12-16T07:28:52;3.50;;;3.20;;
14247;SDS011;7208;49.826;6.004;2022-12-16T07:31:36;5.40;;;5.00;;
14247;SDS011;7208;49.826;6.004;2022-12-16T07:34:20;4.43;;;4.13;;
14247;SDS011;7208;49.826;6.004;2022-12-16T07:37:05;3.30;;;2.97;;
14247;SDS011;7208;49.826;6.004;2022-12-16T07:39:49;2.90;;;2.70;;
14247;SDS011;7208;49.826;6.004;2022-12-16T07:42:33;3.00;;;2.17;;
14247;SDS011;7208;49.826;6.004;2022-12-16T07:45:17;2.63;;;2.43;;
14247;SDS011;7208;49.826;6.004;2022-12-16T07:48:01;2.60;;;2.17;;
14247;SDS011;7208;49.826;6.004;2022-12-16T07:50:45;4.73;;;2.70;;
14247;SDS011;7208;49.826;6.004;2022-12-16T07:53:30;3.60;;;2.43;;
14247;SDS011;7208;49.826;6.004;2022-12-16T07:56:14;2.33;;;2.13;;
14247;SDS011;7208;49.826;6.004;2022-12-16T07:58:58;2.07;;;1.97;;
14247;SDS011;7208;49.826;6.004;2022-12-16T08:01:42;2.73;;;2.53;;
14247;SDS011;7208;49.826;6.004;2022-12-16T08:04:26;3.40;;;3.10;;
14247;SDS011;7208;49.826;6.004;2022-12-16T08:07:10;4.07;;;3.77;;
14247;SDS011;7208;49.826;6.004;2022-12-16T08:09:54;5.10;;;4.60;;
14247;SDS011;7208;49.826;6.004;2022-12-16T08:12:38;4.63;;;4.27;;
14247;SDS011;7208;49.826;6.004;2022-12-16T08:15:22;4.40;;;4.10;;
14247;SDS011;7208;49.826;6.004;2022-12-16T08:18:06;4.40;;;3.90;;
14247;SDS011;7208;49.826;6.004;2022-12-16T08:20:50;4.50;;;4.20;;
14247;SDS011;7208;49.826;6.004;2022-12-16T08:23:34;4.67;;;4.27;;
14247;SDS011;7208;49.826;6.004;2022-12-16T08:26:18;3.77;;;2.77;;
14247;SDS011;7208;49.826;6.004;2022-12-16T08:29:02;3.80;;;3.03;;
14247;SDS011;7208;49.826;6.004;2022-12-16T08:31:47;4.27;;;3.07;;
14247;SDS011;7208;49.826;6.004;2022-12-16T08:34:31;2.80;;;2.60;;
14247;SDS011;7208;49.826;6.004;2022-12-16T08:37:15;2.80;;;2.43;;
14247;SDS011;7208;49.826;6.004;2022-12-16T08:39:59;2.70;;;2.50;;
14247;SDS011;7208;49.826;6.004;2022-12-16T08:42:44;2.50;;;2.30;;
14247;SDS011;7208;49.826;6.004;2022-12-16T08:45:28;2.87;;;2.60;;
14247;SDS011;7208;49.826;6.004;2022-12-16T08:48:12;2.80;;;2.60;;
14247;SDS011;7208;49.826;6.004;2022-12-16T08:50:59;3.10;;;2.70;;
14247;SDS011;7208;49.826;6.004;2022-12-16T08:53:45;3.47;;;2.70;;
14247;SDS011;7208;49.826;6.004;2022-12-16T08:56:29;3.13;;;2.87;;
14247;SDS011;7208;49.826;6.004;2022-12-16T08:59:13;5.57;;;2.70;;
14247;SDS011;7208;49.826;6.004;2022-12-16T09:01:57;2.67;;;2.30;;
14247;SDS011;7208;49.826;6.004;2022-12-16T09:04:41;2.70;;;2.50;;
14247;SDS011;7208;49.826;6.004;2022-12-16T09:07:25;2.20;;;2.10;;
14247;SDS011;7208;49.826;6.004;2022-12-16T09:10:10;3.23;;;2.80;;
14247;SDS011;7208;49.826;6.004;2022-12-16T09:13:03;3.93;;;3.53;;
14247;SDS011;7208;49.826;6.004;2022-12-16T09:15:48;3.10;;;2.70;;
14247;SDS011;7208;49.826;6.004;2022-12-16T09:18:32;3.97;;;2.93;;
14247;SDS011;7208;49.826;6.004;2022-12-16T09:21:17;4.23;;;3.87;;
14247;SDS011;7208;49.826;6.004;2022-12-16T09:24:01;78.67;;;48.40;;
14247;SDS011;7208;49.826;6.004;2022-12-16T09:26:45;56.77;;;35.73;;
14247;SDS011;7208;49.826;6.004;2022-12-16T09:29:29;14.00;;;10.70;;
14247;SDS011;7208;49.826;6.004;2022-12-16T09:32:13;9.30;;;7.63;;
14247;SDS011;7208;49.826;6.004;2022-12-16T09:34:57;5.70;;;5.10;;
14247;SDS011;7208;49.826;6.004;2022-12-16T09:37:45;3.83;;;3.53;;
14247;SDS011;7208;49.826;6.004;2022-12-16T09:40:30;4.27;;;3.30;;
14247;SDS011;7208;49.826;6.004;2022-12-16T09:46:25;3.07;;;2.33;;
14247;SDS011;7208;49.826;6.004;2022-12-16T09:52:19;2.80;;;2.60;;
14247;SDS011;7208;49.826;6.004;2022-12-16T09:55:05;5.13;;;2.87;;
14247;SDS011;7208;49.826;6.004;2022-12-16T09:58:05;4.00;;;3.60;;
14247;SDS011;7208;49.826;6.004;2022-12-16T10:00:51;3.10;;;2.83;;
14247;SDS011;7208;49.826;6.004;2022-12-16T10:03:37;2.67;;;2.47;;
14247;SDS011;7208;49.826;6.004;2022-12-16T10:12:16;4.17;;;2.53;;
14247;SDS011;7208;49.826;6.004;2022-12-16T10:21:51;4.60;;;3.10;;
14247;SDS011;7208;49.826;6.004;2022-12-16T10:27:42;5.53;;;3.47;;
14247;SDS011;7208;49.826;6.004;2022-12-16T10:30:32;3.13;;;2.50;;
14247;SDS011;7208;49.826;6.004;2022-12-16T10:33:20;6.00;;;2.97;;
14247;SDS011;7208;49.826;6.004;2022-12-16T10:36:19;2.60;;;2.30;;
14247;SDS011;7208;49.826;6.004;2022-12-16T10:42:31;2.27;;;2.07;;
14247;SDS011;7208;49.826;6.004;2022-12-16T10:45:20;2.20;;;1.90;;
14247;SDS011;7208;49.826;6.004;2022-12-16T10:48:15;2.40;;;1.90;;
14247;SDS011;7208;49.826;6.004;2022-12-16T10:51:15;2.33;;;1.43;;
14247;SDS011;7208;49.826;6.004;2022-12-16T10:57:09;1.80;;;1.47;;
14247;SDS011;7208;49.826;6.004;2022-12-16T11:00:13;2.63;;;1.40;;
14247;SDS011;7208;49.826;6.004;2022-12-16T11:06:03;1.70;;;1.20;;
14247;SDS011;7208;49.826;6.004;2022-12-16T11:08:49;1.53;;;1.00;;
14247;SDS011;7208;49.826;6.004;2022-12-16T11:11:33;1.57;;;1.00;;
14247;SDS011;7208;49.826;6.004;2022-12-16T11:26:24;0.60;;;0.60;;
14247;SDS011;7208;49.826;6.004;2022-12-16T11:29:12;1.63;;;0.97;;
14247;SDS011;7208;49.826;6.004;2022-12-16T11:32:19;0.70;;;0.70;;
14247;SDS011;7208;49.826;6.004;2022-12-16T11:35:17;0.93;;;0.93;;
14247;SDS011;7208;49.826;6.004;2022-12-16T11:38:03;3.13;;;1.63;;
14247;SDS011;7208;49.826;6.004;2022-12-16T11:40:53;1.13;;;0.90;;
14247;SDS011;7208;49.826;6.004;2022-12-16T11:43:38;1.00;;;0.90;;
14247;SDS011;7208;49.826;6.004;2022-12-16T11:46:26;1.87;;;1.40;;
14247;SDS011;7208;49.826;6.004;2022-12-16T11:49:32;0.97;;;0.70;;
14247;SDS011;7208;49.826;6.004;2022-12-16T11:52:16;1.60;;;0.80;;
14247;SDS011;7208;49.826;6.004;2022-12-16T11:57:56;1.53;;;0.93;;
14247;SDS011;7208;49.826;6.004;2022-12-16T12:00:58;2.03;;;1.10;;
14247;SDS011;7208;49.826;6.004;2022-12-16T12:03:56;1.43;;;1.00;;
14247;SDS011;7208;49.826;6.004;2022-12-16T12:09:56;1.53;;;1.03;;
14247;SDS011;7208;49.826;6.004;2022-12-16T12:12:56;0.80;;;0.80;;
14247;SDS011;7208;49.826;6.004;2022-12-16T12:15:50;1.73;;;0.83;;
14247;SDS011;7208;49.826;6.004;2022-12-16T12:19:02;0.93;;;0.90;;
14247;SDS011;7208;49.826;6.004;2022-12-16T12:21:55;0.97;;;0.83;;
14247;SDS011;7208;49.826;6.004;2022-12-16T12:34:21;4.40;;;3.03;;
14247;SDS011;7208;49.826;6.004;2022-12-16T12:37:31;1.30;;;1.00;;
14247;SDS011;7208;49.826;6.004;2022-12-16T12:40:36;1.03;;;1.00;;
14247;SDS011;7208;49.826;6.004;2022-12-16T12:46:32;0.80;;;0.80;;
14247;SDS011;7208;49.826;6.004;2022-12-16T13:02:47;1.30;;;1.20;;
14247;SDS011;7208;49.826;6.004;2022-12-16T13:05:37;1.30;;;0.70;;
14247;SDS011;7208;49.826;6.004;2022-12-16T13:18:12;1.87;;;0.90;;
14247;SDS011;7208;49.826;6.004;2022-12-16T13:20:40;1.00;;;0.80;;
14247;SDS011;7208;49.826;6.004;2022-12-16T13:23:31;0.70;;;0.70;;
14247;SDS011;7208;49.826;6.004;2022-12-16T13:26:36;4.23;;;1.10;;
14247;SDS011;7208;49.826;6.004;2022-12-16T13:29:45;1.23;;;1.00;;
14247;SDS011;7208;49.826;6.004;2022-12-16T13:33:00;4.07;;;1.10;;
14247;SDS011;7208;49.826;6.004;2022-12-16T13:35:55;1.03;;;1.00;;
14247;SDS011;7208;49.826;6.004;2022-12-16T13:38:48;1.80;;;1.37;;
14247;SDS011;7208;49.826;6.004;2022-12-16T13:50:34;1.37;;;0.90;;
14247;SDS011;7208;49.826;6.004;2022-12-16T13:53:23;0.90;;;0.90;;
14247;SDS011;7208;49.826;6.004;2022-12-16T13:56:10;3.42;;;1.02;;
14247;SDS011;7208;49.826;6.004;2022-12-16T13:58:58;1.80;;;1.13;;
14247;SDS011;7208;49.826;6.004;2022-12-16T14:04:38;1.60;;;1.07;;
14247;SDS011;7208;49.826;6.004;2022-12-16T14:07:36;1.77;;;1.27;;
14247;SDS011;7208;49.826;6.004;2022-12-16T14:10:23;2.10;;;0.80;;
14247;SDS011;7208;49.826;6.004;2022-12-16T14:19:18;1.10;;;1.00;;
14247;SDS011;7208;49.826;6.004;2022-12-16T14:25:26;1.13;;;0.60;;
14247;SDS011;7208;49.826;6.004;2022-12-16T14:31:13;2.60;;;1.23;;
14247;SDS011;7208;49.826;6.004;2022-12-16T14:34:04;1.10;;;0.93;;
14247;SDS011;7208;49.826;6.004;2022-12-16T14:36:48;3.33;;;1.00;;
14247;SDS011;7208;49.826;6.004;2022-12-16T14:39:36;0.80;;;0.80;;
14247;SDS011;7208;49.826;6.004;2022-12-16T14:42:28;1.63;;;1.30;;
14247;SDS011;7208;49.826;6.004;2022-12-16T14:45:25;2.10;;;1.10;;
14247;SDS011;7208;49.826;6.004;2022-12-16T14:54:17;2.30;;;2.07;;
14247;SDS011;7208;49.826;6.004;2022-12-16T14:57:12;2.30;;;1.30;;
14247;SDS011;7208;49.826;6.004;2022-12-16T14:59:59;1.70;;;1.30;;
14247;SDS011;7208;49.826;6.004;2022-12-16T15:02:46;3.87;;;1.40;;
14247;SDS011;7208;49.826;6.004;2022-12-16T15:05:33;2.42;;;1.70;;
14247;SDS011;7208;49.826;6.004;2022-12-16T15:08:20;1.30;;;1.20;;
14247;SDS011;7208;49.826;6.004;2022-12-16T15:11:06;1.37;;;1.10;;
14247;SDS011;7208;49.826;6.004;2022-12-16T15:13:53;2.93;;;1.73;;
14247;SDS011;7208;49.826;6.004;2022-12-16T15:16:41;2.37;;;1.63;;
14247;SDS011;7208;49.826;6.004;2022-12-16T15:19:27;4.43;;;1.90;;
14247;SDS011;7208;49.826;6.004;2022-12-16T15:22:15;4.13;;;2.90;;
14247;SDS011;7208;49.826;6.004;2022-12-16T15:24:59;4.70;;;2.90;;
14247;SDS011;7208;49.826;6.004;2022-12-16T15:27:52;3.63;;;2.40;;
14247;SDS011;7208;49.826;6.004;2022-12-16T15:30:43;4.07;;;3.17;;
14247;SDS011;7208;49.826;6.004;2022-12-16T15:33:29;4.83;;;3.27;;
14247;SDS011;7208;49.826;6.004;2022-12-16T15:36:25;4.83;;;3.53;;
14247;SDS011;7208;49.826;6.004;2022-12-16T15:42:24;4.30;;;3.83;;
14247;SDS011;7208;49.826;6.004;2022-12-16T15:48:11;4.73;;;3.63;;
14247;SDS011;7208;49.826;6.004;2022-12-16T15:50:59;5.40;;;3.90;;
14247;SDS011;7208;49.826;6.004;2022-12-16T15:53:43;4.30;;;3.90;;
14247;SDS011;7208;49.826;6.004;2022-12-16T15:56:40;4.37;;;3.97;;
14247;SDS011;7208;49.826;6.004;2022-12-16T15:59:27;5.80;;;3.40;;
14247;SDS011;7208;49.826;6.004;2022-12-16T16:02:20;5.50;;;4.73;;
14247;SDS011;7208;49.826;6.004;2022-12-16T16:05:11;4.83;;;4.33;;
14247;SDS011;7208;49.826;6.004;2022-12-16T16:08:04;6.13;;;4.67;;
14247;SDS011;7208;49.826;6.004;2022-12-16T16:10:49;7.57;;;5.77;;
14247;SDS011;7208;49.826;6.004;2022-12-16T16:13:33;7.43;;;5.80;;
14247;SDS011;7208;49.826;6.004;2022-12-16T16:16:17;5.50;;;4.43;;
14247;SDS011;7208;49.826;6.004;2022-12-16T16:19:02;4.93;;;4.07;;
14247;SDS011;7208;49.826;6.004;2022-12-16T16:21:52;7.57;;;6.70;;
14247;SDS011;7208;49.826;6.004;2022-12-16T16:24:36;9.37;;;7.53;;
14247;SDS011;7208;49.826;6.004;2022-12-16T16:27:20;7.83;;;6.83;;
14247;SDS011;7208;49.826;6.004;2022-12-16T16:30:04;7.13;;;6.43;;
14247;SDS011;7208;49.826;6.004;2022-12-16T16:32:49;9.67;;;8.30;;
14247;SDS011;7208;49.826;6.004;2022-12-16T16:35:33;9.93;;;8.20;;
14247;SDS011;7208;49.826;6.004;2022-12-16T16:38:17;10.63;;;9.17;;
14247;SDS011;7208;49.826;6.004;2022-12-16T16:41:01;11.30;;;10.17;;
14247;SDS011;7208;49.826;6.004;2022-12-16T16:43:45;10.60;;;9.60;;
14247;SDS011;7208;49.826;6.004;2022-12-16T16:46:33;11.97;;;9.87;;
14247;SDS011;7208;49.826;6.004;2022-12-16T16:52:20;11.50;;;9.43;;
14247;SDS011;7208;49.826;6.004;2022-12-16T16:55:06;11.47;;;9.70;;
14247;SDS011;7208;49.826;6.004;2022-12-16T16:57:56;15.13;;;12.30;;
14247;SDS011;7208;49.826;6.004;2022-12-16T17:00:40;13.07;;;11.67;;
14247;SDS011;7208;49.826;6.004;2022-12-16T17:03:24;15.53;;;11.57;;
14247;SDS011;7208;49.826;6.004;2022-12-16T17:06:08;13.50;;;10.83;;
14247;SDS011;7208;49.826;6.004;2022-12-16T17:08:52;14.97;;;11.40;;
14247;SDS011;7208;49.826;6.004;2022-12-16T17:11:36;12.60;;;10.90;;
14247;SDS011;7208;49.826;6.004;2022-12-16T17:14:20;12.87;;;10.63;;
14247;SDS011;7208;49.826;6.004;2022-12-16T17:17:05;13.50;;;11.13;;
14247;SDS011;7208;49.826;6.004;2022-12-16T17:19:49;12.80;;;11.50;;
14247;SDS011;7208;49.826;6.004;2022-12-16T17:22:34;14.37;;;10.93;;
14247;SDS011;7208;49.826;6.004;2022-12-16T17:25:18;15.40;;;12.13;;
14247;SDS011;7208;49.826;6.004;2022-12-16T17:28:03;15.77;;;12.70;;
14247;SDS011;7208;49.826;6.004;2022-12-16T17:30:48;15.67;;;12.70;;
14247;SDS011;7208;49.826;6.004;2022-12-16T17:33:32;14.90;;;13.10;;
14247;SDS011;7208;49.826;6.004;2022-12-16T17:36:16;19.13;;;14.03;;
14247;SDS011;7208;49.826;6.004;2022-12-16T17:39:01;17.30;;;13.97;;
14247;SDS011;7208;49.826;6.004;2022-12-16T17:41:46;20.80;;;16.83;;
14247;SDS011;7208;49.826;6.004;2022-12-16T17:44:30;18.27;;;12.70;;
14247;SDS011;7208;49.826;6.004;2022-12-16T17:47:15;20.73;;;14.20;;
14247;SDS011;7208;49.826;6.004;2022-12-16T17:49:59;22.57;;;15.03;;
14247;SDS011;7208;49.826;6.004;2022-12-16T17:52:43;23.73;;;16.47;;
14247;SDS011;7208;49.826;6.004;2022-12-16T17:55:27;22.30;;;15.73;;
14247;SDS011;7208;49.826;6.004;2022-12-16T17:58:11;24.07;;;16.20;;
14247;SDS011;7208;49.826;6.004;2022-12-16T18:00:59;23.00;;;16.60;;
14247;SDS011;7208;49.826;6.004;2022-12-16T18:03:48;23.27;;;15.90;;
14247;SDS011;7208;49.826;6.004;2022-12-16T18:06:32;23.27;;;16.90;;
14247;SDS011;7208;49.826;6.004;2022-12-16T18:09:16;28.33;;;16.93;;
14247;SDS011;7208;49.826;6.004;2022-12-16T18:12:00;26.73;;;18.17;;
14247;SDS011;7208;49.826;6.004;2022-12-16T18:14:44;29.13;;;19.83;;
14247;SDS011;7208;49.826;6.004;2022-12-16T18:17:28;36.87;;;21.80;;
14247;SDS011;7208;49.826;6.004;2022-12-16T18:20:12;26.97;;;18.07;;
14247;SDS011;7208;49.826;6.004;2022-12-16T18:22:56;27.20;;;17.77;;
14247;SDS011;7208;49.826;6.004;2022-12-16T18:26:02;27.20;;;19.10;;
14247;SDS011;7208;49.826;6.004;2022-12-16T18:28:47;32.10;;;21.43;;
14247;SDS011;7208;49.826;6.004;2022-12-16T18:31:31;28.70;;;21.30;;
14247;SDS011;7208;49.826;6.004;2022-12-16T18:34:16;29.10;;;19.30;;
14247;SDS011;7208;49.826;6.004;2022-12-16T18:37:00;36.43;;;21.77;;
14247;SDS011;7208;49.826;6.004;2022-12-16T18:39:44;30.90;;;20.37;;
14247;SDS011;7208;49.826;6.004;2022-12-16T18:42:28;31.87;;;20.93;;
14247;SDS011;7208;49.826;6.004;2022-12-16T18:45:12;33.73;;;20.60;;
14247;SDS011;7208;49.826;6.004;2022-12-16T18:47:56;30.53;;;21.17;;
14247;SDS011;7208;49.826;6.004;2022-12-16T18:50:40;33.80;;;19.40;;
14247;SDS011;7208;49.826;6.004;2022-12-16T18:53:24;33.63;;;21.70;;
14247;SDS011;7208;49.826;6.004;2022-12-16T18:56:09;34.30;;;21.93;;
14247;SDS011;7208;49.826;6.004;2022-12-16T18:58:53;35.30;;;21.40;;
14247;SDS011;7208;49.826;6.004;2022-12-16T19:01:38;34.53;;;20.37;;
14247;SDS011;7208;49.826;6.004;2022-12-16T19:04:22;33.57;;;20.17;;
14247;SDS011;7208;49.826;6.004;2022-12-16T19:07:08;32.83;;;20.10;;
14247;SDS011;7208;49.826;6.004;2022-12-16T19:09:52;37.47;;;21.60;;
14247;SDS011;7208;49.826;6.004;2022-12-16T19:12:37;32.73;;;21.60;;
14247;SDS011;7208;49.826;6.004;2022-12-16T19:15:21;32.37;;;20.90;;